Athabasca, Canada
Current Conditions -  °F | °C
As of 8:00 AM on Thursday 30 Oct 2014 (Local Time) from CYZH Reporting Station
Haze Haze  
Wind Chill: 25°   Ceiling: 1000
Heat Index: 36°   Visibility: 4mi
Dew Point: 32°   Wind: 17mph
Humidity: 87%   Direction: 140°SE
Pressure: 30.16"   Gusts: 26mph
Location:  54.72°N, 113.27°W
Report Text: CYZH 301400Z AUTO 14015G23KT 4SM BR OVC010 02/00 A3016 RMK SLP242
Loading
Personal Weather Stations






























Interactive Weather Map
Tropical Storm Tracking
New forecast layout! Learn more

10-Day Weather Forecast

Advertisements
Track Severe Weather on mobile